createdAt,value
2022-08-28T00:00:53.149Z,19.57
2022-08-28T00:03:39.767Z,19.57
2022-08-28T00:06:21.219Z,19.49
2022-08-28T00:09:08.213Z,19.47
2022-08-28T00:11:54.790Z,19.43
2022-08-28T00:14:43.754Z,19.53
2022-08-28T00:17:25.055Z,19.50
2022-08-28T00:20:16.172Z,19.48
2022-08-28T00:23:10.667Z,19.43
2022-08-28T00:25:57.837Z,19.41
2022-08-28T00:28:40.410Z,19.39
2022-08-28T00:31:29.276Z,19.42
2022-08-28T00:34:09.778Z,19.41
2022-08-28T00:36:56.802Z,19.40
2022-08-28T00:39:39.455Z,19.33
2022-08-28T00:42:31.034Z,19.34
2022-08-28T00:45:13.437Z,19.34
2022-08-28T00:48:01.763Z,19.33
2022-08-28T00:51:01.712Z,19.26
2022-08-28T00:53:48.809Z,19.24
2022-08-28T00:56:35.250Z,19.20
2022-08-28T00:59:25.797Z,19.18
2022-08-28T01:02:07.658Z,19.14
2022-08-28T01:04:58.058Z,19.20
2022-08-28T01:07:41.924Z,19.12
2022-08-28T01:10:30.856Z,19.05
2022-08-28T01:13:11.717Z,19.05
2022-08-28T01:16:03.726Z,19.06
2022-08-28T01:18:44.899Z,19.03
2022-08-28T01:21:52.684Z,19.03
2022-08-28T01:24:42.521Z,19.01
2022-08-28T01:27:24.260Z,18.97
2022-08-28T01:30:12.904Z,18.96
2022-08-28T01:33:01.877Z,18.95
2022-08-28T01:35:52.115Z,18.91
2022-08-28T01:38:35.571Z,18.90
2022-08-28T01:41:23.745Z,18.91
2022-08-28T01:44:05.354Z,18.91
2022-08-28T01:46:55.064Z,18.76
2022-08-28T01:49:36.296Z,18.84
2022-08-28T01:52:26.460Z,18.85
2022-08-28T01:55:07.820Z,18.75
2022-08-28T01:58:01.241Z,18.75
2022-08-28T02:00:42.090Z,18.64
2022-08-28T02:03:32.107Z,18.69
2022-08-28T02:06:13.842Z,18.78
2022-08-28T02:09:01.981Z,18.76
2022-08-28T02:11:45.328Z,18.67
2022-08-28T02:14:35.249Z,18.67
2022-08-28T02:17:16.099Z,18.56
2022-08-28T02:20:11.162Z,18.53
2022-08-28T02:23:04.748Z,18.57
2022-08-28T02:25:56.077Z,18.52
2022-08-28T02:28:37.537Z,18.51
2022-08-28T02:31:27.013Z,18.52
2022-08-28T02:34:11.127Z,18.40
2022-08-28T02:36:59.756Z,18.32
2022-08-28T02:39:40.885Z,18.40
2022-08-28T02:42:29.196Z,18.25
2022-08-28T02:45:11.845Z,18.34
2022-08-28T02:48:02.335Z,18.37
2022-08-28T02:50:45.467Z,18.38
2022-08-28T02:53:33.777Z,18.27
2022-08-28T02:56:16.710Z,18.34
2022-08-28T02:59:05.479Z,18.39
2022-08-28T03:01:46.923Z,18.46
2022-08-28T03:04:34.759Z,18.38
2022-08-28T03:07:17.026Z,18.30
2022-08-28T03:10:06.041Z,18.29
2022-08-28T03:12:46.910Z,18.19
2022-08-28T03:15:34.131Z,18.28
2022-08-28T03:18:18.051Z,18.13
2022-08-28T03:21:09.810Z,18.03
2022-08-28T03:23:58.232Z,17.84
2022-08-28T03:26:39.022Z,17.70
2022-08-28T03:29:28.463Z,17.69
2022-08-28T03:32:08.878Z,17.72
2022-08-28T03:34:55.872Z,17.75
2022-08-28T03:37:41.364Z,17.82
2022-08-28T03:40:28.345Z,17.81
2022-08-28T03:43:09.925Z,17.83
2022-08-28T03:46:02.990Z,17.91
2022-08-28T03:48:45.138Z,17.93
2022-08-28T03:51:39.441Z,17.93
2022-08-28T03:54:20.571Z,17.73
2022-08-28T03:57:09.903Z,17.64
2022-08-28T03:59:54.561Z,17.60
2022-08-28T04:02:46.320Z,17.73
2022-08-28T04:05:35.554Z,17.71
2022-08-28T04:08:26.098Z,17.64
2022-08-28T04:11:08.191Z,17.70
2022-08-28T04:13:55.953Z,17.57
2022-08-28T04:16:37.643Z,17.59
2022-08-28T04:19:26.079Z,17.70
2022-08-28T04:22:20.799Z,17.65
2022-08-28T04:25:11.896Z,17.69
2022-08-28T04:27:52.842Z,17.45
2022-08-28T04:30:41.348Z,17.44
2022-08-28T04:33:22.441Z,17.30
2022-08-28T04:36:11.930Z,17.27
2022-08-28T04:38:54.125Z,17.42
2022-08-28T04:41:42.171Z,17.37
2022-08-28T04:44:23.211Z,17.27
2022-08-28T04:47:09.931Z,17.17
2022-08-28T04:49:51.751Z,17.18
2022-08-28T04:52:43.244Z,17.12
2022-08-28T04:55:53.685Z,17.15
2022-08-28T04:58:34.395Z,17.21
2022-08-28T05:01:22.867Z,17.03
2022-08-28T05:04:14.915Z,16.98
2022-08-28T05:06:56.593Z,17.04
2022-08-28T05:09:43.978Z,17.12
2022-08-28T05:12:25.875Z,17.03
2022-08-28T05:15:14.307Z,16.90
2022-08-28T05:17:57.031Z,16.90
2022-08-28T05:20:51.996Z,16.84
2022-08-28T05:23:50.106Z,16.78
2022-08-28T05:26:41.003Z,16.97
2022-08-28T05:29:29.362Z,17.15
2022-08-28T05:32:15.986Z,17.39
2022-08-28T05:34:57.905Z,17.38
2022-08-28T05:37:46.632Z,17.39
2022-08-28T05:40:31.505Z,17.43
2022-08-28T05:43:20.969Z,17.44
2022-08-28T05:46:06.897Z,17.57
2022-08-28T05:48:54.443Z,17.52
2022-08-28T05:51:36.450Z,17.61
2022-08-28T05:54:23.011Z,17.79
2022-08-28T05:57:06.252Z,18.03
2022-08-28T05:59:54.159Z,18.72
2022-08-28T06:02:38.855Z,19.75
2022-08-28T06:05:25.971Z,20.99
2022-08-28T06:08:06.897Z,22.17
2022-08-28T06:10:56.516Z,23.07
2022-08-28T06:13:38.698Z,24.01
2022-08-28T06:16:27.103Z,24.66
2022-08-28T06:19:12.852Z,25.09
2022-08-28T06:22:07.325Z,25.15
2022-08-28T06:24:57.380Z,25.36
2022-08-28T06:27:39.383Z,25.23
2022-08-28T06:30:26.276Z,24.40
2022-08-28T06:33:06.983Z,23.89
2022-08-28T06:35:59.884Z,23.40
2022-08-28T06:38:46.467Z,22.96
2022-08-28T06:41:34.075Z,22.94
2022-08-28T06:44:20.077Z,23.07
2022-08-28T06:47:06.976Z,23.44
2022-08-28T06:49:49.992Z,24.20
2022-08-28T06:52:37.974Z,24.96
2022-08-28T06:55:22.800Z,25.59
2022-08-28T06:58:12.977Z,25.93
2022-08-28T07:01:02.316Z,26.43
2022-08-28T07:03:54.234Z,27.07
2022-08-28T07:06:39.048Z,27.48
2022-08-28T07:09:26.989Z,27.62
2022-08-28T07:12:09.107Z,27.79
2022-08-28T07:14:57.058Z,28.30
2022-08-28T07:17:38.361Z,28.75
2022-08-28T07:20:27.656Z,29.03
2022-08-28T07:23:21.882Z,29.49
2022-08-28T07:26:13.480Z,30.02
2022-08-28T07:29:09.626Z,30.29
2022-08-28T07:32:03.320Z,30.51
2022-08-28T07:34:46.034Z,30.24
2022-08-28T07:37:36.235Z,28.95
2022-08-28T07:40:23.075Z,26.39
2022-08-28T07:43:31.681Z,25.58
2022-08-28T07:46:17.132Z,23.70
2022-08-28T07:49:06.282Z,23.35
2022-08-28T07:51:48.451Z,22.70
2022-08-28T07:54:37.703Z,23.51
2022-08-28T07:57:21.173Z,23.82
2022-08-28T08:00:11.009Z,23.75
2022-08-28T08:02:52.070Z,24.48
2022-08-28T08:05:40.426Z,25.02
2022-08-28T08:08:21.446Z,24.66
2022-08-28T08:11:21.280Z,24.95
2022-08-28T08:14:09.353Z,24.69
2022-08-28T08:17:01.200Z,24.30
2022-08-28T08:19:44.079Z,23.89
2022-08-28T08:22:32.042Z,24.09
2022-08-28T08:25:21.762Z,24.31
2022-08-28T08:28:06.701Z,24.72
2022-08-28T08:31:00.408Z,25.39
2022-08-28T08:33:45.708Z,25.71
2022-08-28T08:36:46.744Z,25.88
2022-08-28T08:39:40.807Z,25.25
2022-08-28T08:42:39.642Z,25.30
2022-08-28T08:45:26.928Z,25.17
2022-08-28T08:48:46.092Z,25.36
2022-08-28T08:51:47.197Z,24.80
2022-08-28T08:54:36.096Z,24.45
2022-08-28T08:57:21.164Z,24.60
2022-08-28T09:00:16.078Z,25.26
2022-08-28T09:03:07.910Z,25.56
2022-08-28T09:06:07.088Z,25.60
2022-08-28T09:08:52.394Z,25.89
2022-08-28T09:12:03.671Z,25.80
2022-08-28T09:15:15.994Z,26.14
2022-08-28T09:18:16.278Z,26.18
2022-08-28T09:21:00.386Z,26.30
2022-08-28T09:23:54.960Z,26.20
2022-08-28T09:26:42.791Z,26.63
2022-08-28T09:29:26.790Z,26.73
2022-08-28T09:32:25.057Z,26.32
2022-08-28T09:35:14.956Z,26.30
2022-08-28T09:38:03.204Z,26.62
2022-08-28T09:41:03.598Z,27.19
2022-08-28T09:43:55.819Z,27.31
2022-08-28T09:46:45.019Z,26.90
2022-08-28T09:49:37.744Z,27.13
2022-08-28T09:52:27.147Z,27.35
2022-08-28T09:55:24.559Z,27.19
2022-08-28T09:58:05.294Z,27.30
2022-08-28T10:01:02.501Z,27.05
2022-08-28T10:04:02.224Z,26.78
2022-08-28T10:07:05.180Z,26.45
2022-08-28T10:10:11.961Z,26.89
2022-08-28T10:13:24.039Z,26.73
2022-08-28T10:16:21.262Z,26.61
2022-08-28T10:19:30.075Z,26.02
2022-08-28T10:22:35.192Z,25.62
2022-08-28T10:25:40.394Z,25.62
2022-08-28T10:28:36.203Z,25.53
2022-08-28T10:31:46.590Z,25.53
2022-08-28T10:34:43.599Z,25.63
2022-08-28T10:38:03.065Z,26.10
2022-08-28T10:41:06.174Z,26.37
2022-08-28T10:44:00.414Z,26.24
2022-08-28T10:46:50.275Z,26.23
2022-08-28T10:49:53.308Z,26.39
2022-08-28T10:52:40.204Z,26.45
2022-08-28T10:55:42.150Z,26.27
2022-08-28T10:58:25.703Z,25.82
2022-08-28T11:01:32.329Z,25.83
2022-08-28T11:04:25.521Z,25.71
2022-08-28T11:07:27.056Z,25.55
2022-08-28T11:10:42.009Z,25.41
2022-08-28T11:13:51.345Z,25.52
2022-08-28T11:16:36.551Z,25.65
2022-08-28T11:19:44.567Z,25.82
2022-08-28T11:22:36.371Z,25.78
2022-08-28T11:25:49.784Z,25.62
2022-08-28T11:28:31.425Z,25.70
2022-08-28T11:31:29.409Z,25.62
2022-08-28T11:34:13.180Z,25.69
2022-08-28T11:37:06.098Z,25.60
2022-08-28T11:39:47.258Z,25.46
2022-08-28T11:42:43.274Z,25.65
2022-08-28T11:45:51.461Z,25.98
2022-08-28T11:48:46.151Z,26.44
2022-08-28T11:51:36.440Z,26.77
2022-08-28T11:54:40.713Z,26.55
2022-08-28T11:57:31.475Z,26.49
2022-08-28T12:00:55.088Z,26.62
2022-08-28T12:04:07.430Z,27.00
2022-08-28T12:07:01.640Z,27.56
2022-08-28T12:09:52.809Z,27.76
2022-08-28T12:12:53.074Z,27.97
2022-08-28T12:15:35.232Z,27.93
2022-08-28T12:18:45.143Z,28.08
2022-08-28T12:21:31.271Z,27.98
2022-08-28T12:24:35.820Z,27.98
2022-08-28T12:27:24.201Z,27.46
2022-08-28T12:30:08.826Z,26.69
2022-08-28T12:33:57.340Z,26.95
2022-08-28T12:36:40.133Z,27.19
2022-08-28T12:39:27.181Z,26.97
2022-08-28T12:42:10.143Z,26.92
2022-08-28T12:44:57.258Z,27.23
2022-08-28T12:47:41.277Z,27.51
2022-08-28T12:50:33.250Z,27.71
2022-08-28T12:53:21.614Z,27.84
2022-08-28T12:56:10.266Z,27.90
2022-08-28T12:58:53.186Z,27.87
2022-08-28T13:01:41.866Z,27.55
2022-08-28T13:04:52.214Z,27.29
2022-08-28T13:07:44.694Z,27.09
2022-08-28T13:10:39.951Z,26.93
2022-08-28T13:13:29.218Z,26.93
2022-08-28T13:16:18.153Z,26.95
2022-08-28T13:19:12.641Z,27.14
2022-08-28T13:21:58.522Z,27.20
2022-08-28T13:25:02.118Z,27.26
2022-08-28T13:27:50.177Z,26.96
2022-08-28T13:30:41.343Z,27.02
2022-08-28T13:33:32.162Z,27.25
2022-08-28T13:36:29.234Z,27.19
2022-08-28T13:39:18.577Z,26.75
2022-08-28T13:42:05.251Z,26.77
2022-08-28T13:45:00.935Z,26.84
2022-08-28T13:47:42.523Z,27.03
2022-08-28T13:50:30.180Z,27.07
2022-08-28T13:53:12.101Z,27.06
2022-08-28T13:56:03.197Z,26.48
2022-08-28T13:58:47.846Z,26.53
2022-08-28T14:02:04.765Z,26.63
2022-08-28T14:04:46.807Z,26.38
2022-08-28T14:07:36.753Z,26.54
2022-08-28T14:10:17.304Z,26.59
2022-08-28T14:13:04.163Z,26.72
2022-08-28T14:15:45.899Z,26.63
2022-08-28T14:18:35.617Z,26.68
2022-08-28T14:21:17.008Z,26.67
2022-08-28T14:24:12.157Z,26.72
2022-08-28T14:27:02.757Z,26.85
2022-08-28T14:29:44.224Z,26.59
2022-08-28T14:32:32.255Z,26.63
2022-08-28T14:35:13.554Z,26.69
2022-08-28T14:38:02.556Z,26.70
2022-08-28T14:40:45.217Z,26.81
2022-08-28T14:43:36.339Z,26.88
2022-08-28T14:46:27.304Z,26.93
2022-08-28T14:49:17.335Z,26.55
2022-08-28T14:52:00.153Z,26.42
2022-08-28T14:54:49.320Z,26.47
2022-08-28T14:57:31.170Z,26.65
2022-08-28T15:00:19.493Z,26.80
2022-08-28T15:03:00.319Z,26.61
2022-08-28T15:05:48.305Z,26.46
2022-08-28T15:08:31.310Z,26.29
2022-08-28T15:11:23.091Z,26.23
2022-08-28T15:14:05.370Z,26.27
2022-08-28T15:16:55.451Z,26.36
2022-08-28T15:19:37.942Z,26.38
2022-08-28T15:22:27.650Z,26.38
2022-08-28T15:25:16.205Z,26.38
2022-08-28T15:27:57.323Z,26.38
2022-08-28T15:30:46.592Z,26.30
2022-08-28T15:33:28.215Z,25.93
2022-08-28T15:36:17.202Z,25.83
2022-08-28T15:39:17.052Z,25.86
2022-08-28T15:42:10.268Z,26.02
2022-08-28T15:44:51.814Z,26.20
2022-08-28T15:47:38.483Z,26.36
2022-08-28T15:50:25.366Z,26.29
2022-08-28T15:53:18.098Z,26.25
2022-08-28T15:55:59.429Z,26.18
2022-08-28T15:58:47.327Z,26.24
2022-08-28T16:01:28.453Z,26.32
2022-08-28T16:04:18.580Z,26.23
2022-08-28T16:07:00.913Z,26.23
2022-08-28T16:09:49.327Z,26.28
2022-08-28T16:12:32.731Z,26.33
2022-08-28T16:15:22.801Z,26.37
2022-08-28T16:18:03.539Z,26.19
2022-08-28T16:20:52.268Z,26.19
2022-08-28T16:23:47.201Z,26.17
2022-08-28T16:26:36.447Z,26.20
2022-08-28T16:29:18.209Z,26.24
2022-08-28T16:32:06.264Z,26.17
2022-08-28T16:34:48.473Z,26.13
2022-08-28T16:37:39.666Z,26.12
2022-08-28T16:40:21.920Z,26.17
2022-08-28T16:43:10.732Z,26.14
2022-08-28T16:45:53.003Z,26.07
2022-08-28T16:48:45.237Z,26.03
2022-08-28T16:51:27.498Z,26.04
2022-08-28T16:54:18.326Z,26.01
2022-08-28T16:57:00.403Z,26.07
2022-08-28T16:59:48.397Z,26.11
2022-08-28T17:02:35.246Z,26.19
2022-08-28T17:05:27.755Z,26.13
2022-08-28T17:08:08.356Z,25.95
2022-08-28T17:10:57.612Z,25.83
2022-08-28T17:13:39.681Z,25.70
2022-08-28T17:16:27.453Z,25.76
2022-08-28T17:19:08.410Z,25.70
2022-08-28T17:22:18.279Z,25.68
2022-08-28T17:25:16.094Z,25.61
2022-08-28T17:27:57.784Z,25.55
2022-08-28T17:30:45.563Z,25.59
2022-08-28T17:33:26.261Z,25.54
2022-08-28T17:36:32.560Z,25.54
2022-08-28T17:39:19.434Z,25.57
2022-08-28T17:42:07.404Z,25.55
2022-08-28T17:44:50.361Z,25.56
2022-08-28T17:47:39.420Z,25.62
2022-08-28T17:50:21.092Z,25.45
2022-08-28T17:53:08.936Z,25.46
2022-08-28T17:55:49.292Z,25.43
2022-08-28T17:58:37.694Z,25.34
2022-08-28T18:01:18.389Z,25.27
2022-08-28T18:04:06.507Z,25.24
2022-08-28T18:06:47.707Z,25.20
2022-08-28T18:09:35.445Z,25.20
2022-08-28T18:12:17.247Z,25.03
2022-08-28T18:15:04.413Z,24.90
2022-08-28T18:17:46.699Z,24.94
2022-08-28T18:20:35.988Z,25.05
2022-08-28T18:23:17.323Z,25.00
2022-08-28T18:26:04.410Z,24.85
2022-08-28T18:28:46.289Z,24.79
2022-08-28T18:31:35.744Z,24.63
2022-08-28T18:34:18.678Z,24.57
2022-08-28T18:37:06.408Z,24.60
2022-08-28T18:39:47.297Z,24.51
2022-08-28T18:42:38.786Z,24.59
2022-08-28T18:45:20.132Z,24.45
2022-08-28T18:48:08.400Z,24.36
2022-08-28T18:50:49.716Z,24.32
2022-08-28T18:53:39.282Z,24.22
2022-08-28T18:56:24.730Z,24.09
2022-08-28T18:59:15.474Z,24.13
2022-08-28T19:01:56.520Z,24.18
2022-08-28T19:04:45.634Z,24.01
2022-08-28T19:07:26.767Z,23.97
2022-08-28T19:10:28.350Z,24.00
2022-08-28T19:13:14.340Z,23.93
2022-08-28T19:16:01.940Z,23.74
2022-08-28T19:18:43.715Z,23.78
2022-08-28T19:21:32.551Z,23.65
2022-08-28T19:24:29.345Z,23.42
2022-08-28T19:27:17.616Z,23.30
2022-08-28T19:30:00.843Z,23.22
2022-08-28T19:32:50.465Z,23.19
2022-08-28T19:35:31.751Z,23.01
2022-08-28T19:38:20.092Z,22.90
2022-08-28T19:41:03.122Z,23.01
2022-08-28T19:43:53.451Z,22.89
2022-08-28T19:46:34.408Z,23.04
2022-08-28T19:49:22.535Z,22.91
2022-08-28T19:52:04.745Z,22.77
2022-08-28T19:54:52.536Z,22.85
2022-08-28T19:57:36.726Z,22.73
2022-08-28T20:00:33.016Z,22.89
2022-08-28T20:03:13.381Z,22.78
2022-08-28T20:06:03.975Z,22.63
2022-08-28T20:08:46.555Z,22.88
2022-08-28T20:11:34.011Z,22.96
2022-08-28T20:14:15.453Z,22.82
2022-08-28T20:17:05.055Z,22.61
2022-08-28T20:19:46.423Z,22.47
2022-08-28T20:22:35.457Z,22.26
2022-08-28T20:25:26.123Z,22.13
2022-08-28T20:28:07.551Z,22.12
2022-08-28T20:30:58.156Z,22.14
2022-08-28T20:33:39.870Z,22.17
2022-08-28T20:36:30.927Z,22.02
2022-08-28T20:39:12.583Z,22.02
2022-08-28T20:42:00.772Z,21.99
2022-08-28T20:44:42.527Z,21.83
2022-08-28T20:47:31.562Z,21.60
2022-08-28T20:50:12.619Z,21.72
2022-08-28T20:53:00.411Z,21.68
2022-08-28T20:55:41.887Z,21.67
2022-08-28T20:58:28.870Z,21.70
2022-08-28T21:01:10.599Z,21.62
2022-08-28T21:03:58.779Z,21.40
2022-08-28T21:06:41.578Z,21.24
2022-08-28T21:10:02.246Z,21.25
2022-08-28T21:12:31.561Z,21.20
2022-08-28T21:15:21.211Z,21.22
2022-08-28T21:18:04.294Z,21.36
2022-08-28T21:20:53.295Z,21.01
2022-08-28T21:23:34.567Z,21.12
2022-08-28T21:26:21.460Z,21.03
2022-08-28T21:29:03.269Z,20.97
2022-08-28T21:31:53.598Z,20.96
2022-08-28T21:34:34.543Z,20.80
2022-08-28T21:37:22.484Z,20.72
2022-08-28T21:40:04.018Z,20.84
2022-08-28T21:42:53.829Z,20.79
2022-08-28T21:45:34.627Z,20.69
2022-08-28T21:48:24.314Z,20.72
2022-08-28T21:51:05.877Z,20.75
2022-08-28T21:53:54.448Z,20.51
2022-08-28T21:56:35.552Z,20.47
2022-08-28T21:59:23.886Z,20.40
2022-08-28T22:02:07.576Z,20.52
2022-08-28T22:04:56.849Z,20.43
2022-08-28T22:07:37.572Z,20.49
2022-08-28T22:10:25.468Z,20.56
2022-08-28T22:13:06.782Z,20.41
2022-08-28T22:15:54.427Z,20.63
2022-08-28T22:18:35.556Z,20.47
2022-08-28T22:21:47.334Z,20.40
2022-08-28T22:24:44.440Z,20.36
2022-08-28T22:27:35.529Z,20.43
2022-08-28T22:30:16.914Z,20.26
2022-08-28T22:33:03.495Z,20.21
2022-08-28T22:35:44.631Z,20.08
2022-08-28T22:38:36.500Z,20.17
2022-08-28T22:41:17.541Z,19.99
2022-08-28T22:44:05.571Z,20.07
2022-08-28T22:46:46.948Z,19.87
2022-08-28T22:49:39.724Z,19.78
2022-08-28T22:52:20.650Z,20.05
2022-08-28T22:55:09.449Z,19.97
2022-08-28T22:57:52.723Z,19.99
2022-08-28T23:00:41.284Z,19.95
2022-08-28T23:03:22.659Z,19.89
2022-08-28T23:06:11.586Z,19.95
2022-08-28T23:08:53.755Z,19.72
2022-08-28T23:11:44.348Z,19.68
2022-08-28T23:14:26.842Z,19.72
2022-08-28T23:17:14.477Z,19.54
2022-08-28T23:20:00.335Z,19.79
2022-08-28T23:22:48.475Z,19.66
2022-08-28T23:25:42.462Z,19.66
2022-08-28T23:28:30.448Z,19.58
2022-08-28T23:31:11.593Z,19.27
2022-08-28T23:33:58.523Z,19.25
2022-08-28T23:36:42.988Z,19.14
2022-08-28T23:39:32.549Z,19.09
2022-08-28T23:42:16.958Z,19.21
2022-08-28T23:45:06.607Z,19.22
2022-08-28T23:47:47.616Z,19.26
2022-08-28T23:50:35.548Z,19.27
2022-08-28T23:53:18.060Z,19.36
2022-08-28T23:56:07.696Z,19.39
2022-08-28T23:58:48.585Z,19.31
